Time;durP1;ratioP1;P1;durP2;ratioP2;P2;SDS_P1;SDS_P2;PMS_P1;PMS_P2;Temp;Humidity;BMP_temperature;BMP_pressure;BME280_temperature;BME280_humidity;BME280_pressure;Samples;Min_cycle;Max_cycle;Signal;HPM_P1;HPM_P2
2022/05/27 00:00:55;;;;;;;23.50;5.72;;;14.30;99.90;;;;;;4231253;28;20039;-82
2022/05/27 00:02:56;;;;;;;11.27;2.67;;;14.20;99.90;;;;;;4212709;28;20124;-82
2022/05/27 00:04:57;;;;;;;16.45;3.00;;;14.20;99.90;;;;;;4230911;28;20039;-82
2022/05/27 00:06:57;;;;;;;10.40;2.78;;;14.20;99.90;;;;;;4229866;28;20510;-82
2022/05/27 00:08:58;;;;;;;18.50;2.63;;;14.10;99.90;;;;;;4230886;28;20058;-82
2022/05/27 00:10:59;;;;;;;12.60;2.53;;;14.10;99.90;;;;;;4243652;27;20035;-82
2022/05/27 00:13:00;;;;;;;14.65;3.92;;;14.10;99.90;;;;;;4248199;27;20058;-82
2022/05/27 00:15:01;;;;;;;16.77;3.80;;;14.10;99.90;;;;;;4247934;28;20039;-82
2022/05/27 00:17:02;;;;;;;13.65;2.90;;;14.00;99.90;;;;;;4247249;28;20031;-82
2022/05/27 00:19:02;;;;;;;14.98;2.72;;;14.00;99.90;;;;;;4247619;28;20092;-82
2022/05/27 00:21:04;;;;;;;14.13;2.03;;;14.00;99.90;;;;;;4247847;28;20051;-82
2022/05/27 00:23:05;;;;;;;15.43;2.17;;;13.90;99.90;;;;;;4247895;28;20047;-82
2022/05/27 00:25:07;;;;;;;20.92;4.30;;;13.90;99.90;;;;;;4247900;28;20063;-82
2022/05/27 00:27:08;;;;;;;13.52;2.50;;;13.90;99.90;;;;;;4229753;28;20538;-82
2022/05/27 00:29:08;;;;;;;16.23;2.88;;;13.80;99.90;;;;;;4247373;28;20043;-82
2022/05/27 00:31:09;;;;;;;12.82;2.55;;;13.80;99.90;;;;;;4247918;28;20036;-83
2022/05/27 00:33:10;;;;;;;14.38;3.17;;;13.80;99.90;;;;;;4247596;28;20057;-82
2022/05/27 00:35:11;;;;;;;14.13;2.53;;;13.80;99.90;;;;;;4248067;28;20514;-82
2022/05/27 00:37:12;;;;;;;16.17;1.95;;;13.80;99.90;;;;;;4247733;28;20047;-83
2022/05/27 00:39:12;;;;;;;12.88;2.40;;;13.80;99.90;;;;;;4229081;28;20455;-82
2022/05/27 00:41:13;;;;;;;14.60;2.28;;;13.70;99.90;;;;;;4229607;28;20138;-82
2022/05/27 00:43:15;;;;;;;13.73;3.13;;;13.70;99.90;;;;;;4247727;28;20069;-82
2022/05/27 00:45:19;;;;;;;15.27;2.50;;;13.70;99.90;;;;;;4237081;28;20126;-82
2022/05/27 00:47:22;;;;;;;13.93;2.97;;;13.60;99.90;;;;;;4231584;28;20423;-82
2022/05/27 00:49:26;;;;;;;12.00;2.15;;;13.60;99.90;;;;;;4234111;28;20036;-83
2022/05/27 00:51:30;;;;;;;13.93;1.98;;;13.60;99.90;;;;;;4215815;28;20044;-82
2022/05/27 00:53:38;;;;;;;5.80;1.63;;;13.60;99.90;;;;;;4233919;28;20399;-82
2022/05/27 00:55:45;;;;;;;12.60;3.10;;;13.60;99.90;;;;;;4234712;28;20054;-82
2022/05/27 00:58:10;;;;;;;12.50;3.15;;;13.50;99.90;;;;;;4234820;28;20548;-82
2022/05/27 01:00:16;;;;;;;13.57;1.88;;;13.50;99.90;;;;;;4233372;28;20047;-82
2022/05/27 01:02:18;;;;;;;13.48;2.10;;;13.50;99.90;;;;;;4233364;28;20043;-82
2022/05/27 01:04:19;;;;;;;10.77;2.33;;;13.40;99.90;;;;;;4234277;28;20047;-81
2022/05/27 01:06:20;;;;;;;15.88;2.63;;;13.40;99.90;;;;;;4233804;28;20412;-82
2022/05/27 01:08:26;;;;;;;14.20;2.50;;;13.40;99.90;;;;;;4234163;28;20091;-82
2022/05/27 01:10:27;;;;;;;7.88;1.77;;;13.30;99.90;;;;;;4215729;28;20097;-82
2022/05/27 01:12:51;;;;;;;14.77;2.63;;;13.30;99.90;;;;;;4234131;28;20421;-82
2022/05/27 01:15:08;;;;;;;13.68;2.97;;;13.30;99.90;;;;;;4215389;28;20079;-82
2022/05/27 01:17:34;;;;;;;11.25;3.15;;;13.20;99.90;;;;;;4233587;28;20040;-82
2022/05/27 01:22:34;;;;;;;14.98;2.35;;;13.20;99.90;;;;;;4233037;28;20560;-82
2022/05/27 01:24:47;;;;;;;15.07;2.20;;;13.20;99.90;;;;;;4233537;28;20050;-82
2022/05/27 01:27:29;;;;;;;8.80;1.80;;;13.10;99.90;;;;;;4215109;28;20040;-81
2022/05/27 01:30:17;;;;;;;12.55;2.50;;;13.00;99.90;;;;;;4233232;28;20040;-81
2022/05/27 01:32:40;;;;;;;8.70;2.50;;;13.00;99.90;;;;;;4164587;28;20131;-82
2022/05/27 01:34:43;;;;;;;5.47;1.55;;;13.00;99.90;;;;;;4184046;28;20053;-82
2022/05/27 01:36:58;;;;;;;15.43;3.13;;;12.90;99.90;;;;;;4232646;28;20047;-82
2022/05/27 01:39:02;;;;;;;7.97;2.30;;;12.90;99.90;;;;;;4233682;28;20039;-81
2022/05/27 01:41:12;;;;;;;8.38;1.90;;;12.90;99.90;;;;;;4233662;28;20051;-82
2022/05/27 01:43:18;;;;;;;11.48;2.28;;;12.80;99.90;;;;;;4233558;28;20071;-82
2022/05/27 01:45:26;;;;;;;14.32;1.85;;;13.00;99.90;;;;;;4233479;28;20055;-81
2022/05/27 01:47:32;;;;;;;10.13;2.38;;;12.80;99.90;;;;;;4232827;28;20039;-82
2022/05/27 01:49:37;;;;;;;15.02;2.88;;;12.80;99.90;;;;;;4215240;28;20466;-82
2022/05/27 01:51:48;;;;;;;8.38;1.92;;;12.70;99.90;;;;;;4233670;28;20044;-82
2022/05/27 01:53:56;;;;;;;12.52;2.28;;;12.70;99.90;;;;;;4233623;28;20065;-82
2022/05/27 01:56:24;;;;;;;15.32;2.05;;;12.60;99.90;;;;;;4233496;28;20043;-82
2022/05/27 01:58:36;;;;;;;12.80;1.50;;;12.60;99.90;;;;;;4232879;28;20036;-83
2022/05/27 02:00:38;;;;;;;6.65;1.80;;;12.50;99.90;;;;;;4233399;28;20083;-83
2022/05/27 02:02:46;;;;;;;7.95;2.17;;;12.50;99.90;;;;;;4233079;28;20424;-83
2022/05/27 02:05:05;;;;;;;8.15;2.10;;;12.50;99.90;;;;;;4233311;28;20039;-83
2022/05/27 02:07:14;;;;;;;10.45;1.52;;;12.50;99.90;;;;;;4233499;28;20054;-82
2022/05/27 02:09:29;;;;;;;11.60;2.17;;;12.10;99.90;;;;;;4232756;28;20124;-83
2022/05/27 02:11:32;;;;;;;10.68;2.13;;;12.40;99.90;;;;;;4248688;27;20093;-83
2022/05/27 02:13:35;;;;;;;11.48;1.52;;;12.40;99.90;;;;;;4250449;27;20046;-82
2022/05/27 02:15:40;;;;;;;6.40;1.40;;;12.10;99.90;;;;;;4250152;27;20047;-82
2022/05/27 02:17:47;;;;;;;8.68;1.50;;;12.30;99.90;;;;;;4250274;27;20051;-82
2022/05/27 02:20:04;;;;;;;9.68;1.38;;;12.50;99.90;;;;;;4250272;27;20039;-82
2022/05/27 02:22:19;;;;;;;9.13;1.85;;;12.30;99.90;;;;;;4231553;28;20101;-83
2022/05/27 02:24:38;;;;;;;11.80;2.58;;;12.20;99.90;;;;;;4249437;27;20046;-83
2022/05/27 02:26:47;;;;;;;15.70;3.33;;;12.20;99.90;;;;;;4250214;27;20039;-83
2022/05/27 02:28:59;;;;;;;9.20;1.52;;;11.10;99.90;;;;;;4249802;27;20122;-83
2022/05/27 02:31:07;;;;;;;13.63;1.90;;;12.20;99.90;;;;;;4249930;27;20075;-82
2022/05/27 02:35:32;;;;;;;6.65;1.35;;;12.60;99.90;;;;;;4250042;27;20051;-83
2022/05/27 02:37:40;;;;;;;7.18;2.20;;;12.30;99.90;;;;;;4249905;27;20421;-83
2022/05/27 02:39:41;;;;;;;7.80;1.70;;;12.00;99.90;;;;;;4250030;27;20074;-83
2022/05/27 02:41:57;;;;;;;13.07;2.28;;;12.00;99.90;;;;;;4249739;27;20039;-82
2022/05/27 02:44:28;;;;;;;13.45;1.98;;;12.20;99.90;;;;;;4249952;27;20546;-83
2022/05/27 02:46:56;;;;;;;9.63;2.20;;;12.00;99.90;;;;;;4233008;28;20044;-83
2022/05/27 02:49:32;;;;;;;8.20;1.20;;;12.00;99.90;;;;;;4232443;28;20047;-83
2022/05/27 02:51:52;;;;;;;9.27;1.92;;;11.90;99.90;;;;;;4232712;28;20040;-82
2022/05/27 02:54:16;;;;;;;17.42;2.03;;;11.90;99.90;;;;;;4233175;28;20047;-83
2022/05/27 02:56:27;;;;;;;15.50;1.88;;;11.90;99.90;;;;;;4214960;28;20079;-82
2022/05/27 02:58:30;;;;;;;14.38;2.25;;;11.90;99.90;;;;;;4233383;28;20044;-82
2022/05/27 03:00:34;;;;;;;9.98;1.50;;;11.90;99.90;;;;;;4233073;28;20126;-82
2022/05/27 03:02:35;;;;;;;7.13;1.63;;;12.00;99.90;;;;;;4214964;28;20044;-82
2022/05/27 03:04:40;;;;;;;7.45;1.98;;;12.50;99.90;;;;;;4232480;28;20483;-82
2022/05/27 03:07:00;;;;;;;9.38;1.42;;;12.20;99.90;;;;;;4230827;28;20101;-83
2022/05/27 03:09:20;;;;;;;6.88;1.60;;;11.80;99.90;;;;;;4231020;28;20086;-83
2022/05/27 03:11:38;;;;;;;8.85;1.17;;;11.70;99.90;;;;;;4231606;28;20092;-82
2022/05/27 03:13:53;;;;;;;4.95;1.10;;;11.70;99.90;;;;;;4232102;28;20060;-83
2022/05/27 03:16:22;;;;;;;10.13;2.90;;;11.60;99.90;;;;;;4213696;28;20093;-83
2022/05/27 03:18:22;;;;;;;7.72;1.55;;;11.60;99.90;;;;;;4232346;28;20114;-83
2022/05/27 03:20:30;;;;;;;7.78;2.20;;;11.60;99.90;;;;;;4232104;28;20088;-82
2022/05/27 03:22:52;;;;;;;12.02;2.45;;;11.70;99.90;;;;;;4231913;28;20630;-83
2022/05/27 03:24:58;;;;;;;10.95;1.98;;;11.60;99.90;;;;;;4232272;28;20416;-83
2022/05/27 03:27:14;;;;;;;9.95;1.65;;;11.50;99.90;;;;;;4213980;28;20047;-84
2022/05/27 03:29:23;;;;;;;7.68;2.38;;;11.50;99.90;;;;;;4230159;28;20044;-82
2022/05/27 03:31:29;;;;;;;;;;;11.50;99.90;;;;;;4214177;28;20128;-82
2022/05/27 03:33:56;;;;;;;11.75;1.52;;;11.50;99.90;;;;;;4231789;28;20390;-82
2022/05/27 03:36:21;;;;;;;9.68;1.65;;;11.70;99.90;;;;;;4231852;28;20051;-82
2022/05/27 03:38:49;;;;;;;8.13;1.30;;;11.50;99.90;;;;;;4231711;28;20400;-82
2022/05/27 03:41:00;;;;;;;8.57;1.75;;;11.50;99.90;;;;;;4231615;28;20236;-82
2022/05/27 03:43:02;;;;;;;10.27;1.55;;;11.60;99.90;;;;;;4231736;28;20506;-82
2022/05/27 03:45:10;;;;;;;8.32;1.63;;;11.60;99.90;;;;;;4232051;28;20043;-82
2022/05/27 03:47:11;;;;;;;9.27;2.07;;;11.50;99.90;;;;;;4231709;28;20054;-82
2022/05/27 03:49:11;;;;;;;7.68;1.48;;;12.00;99.90;;;;;;4232157;28;20036;-82
2022/05/27 03:51:28;;;;;;;9.88;1.45;;;11.60;99.90;;;;;;4233682;28;20082;-82
2022/05/27 03:54:14;;;;;;;12.50;1.80;;;11.60;99.90;;;;;;4232014;28;20503;-82
2022/05/27 03:55:49;;;;;;;6.18;1.60;;;11.60;99.90;;;;;;4220431;28;20645;-82
2022/05/27 03:57:50;;;;;;;10.27;2.08;;;12.10;99.90;;;;;;4233195;28;20175;-83
2022/05/27 03:59:50;;;;;;;6.82;1.75;;;11.60;99.90;;;;;;4233090;28;20044;-82
2022/05/27 04:01:54;;;;;;;9.98;2.70;;;11.60;99.90;;;;;;4216574;28;20090;-81
2022/05/27 04:03:57;;;;;;;9.85;1.35;;;11.70;99.90;;;;;;4231417;28;20514;-81
2022/05/27 04:05:58;;;;;;;8.82;1.50;;;11.70;99.90;;;;;;4231229;28;20395;-81
2022/05/27 04:07:58;;;;;;;9.75;1.98;;;11.70;99.90;;;;;;4238756;27;20049;-81
2022/05/27 04:10:00;;;;;;;11.90;1.80;;;11.70;99.90;;;;;;4247979;27;20037;-81
2022/05/27 04:12:03;;;;;;;7.15;1.17;;;11.70;99.90;;;;;;4229913;28;20107;-81
2022/05/27 04:14:03;;;;;;;13.15;1.40;;;11.70;99.90;;;;;;4247499;27;20043;-81
2022/05/27 04:16:04;;;;;;;9.35;2.42;;;11.80;99.90;;;;;;4247952;28;20122;-81
2022/05/27 04:18:05;;;;;;;9.13;2.55;;;11.80;99.90;;;;;;4248249;28;20501;-82
2022/05/27 04:20:10;;;;;;;13.13;2.15;;;11.80;99.90;;;;;;4240324;28;20115;-81
2022/05/27 04:22:11;;;;;;;11.18;1.70;;;11.90;99.90;;;;;;4215219;28;20059;-81
2022/05/27 04:24:12;;;;;;;10.75;1.95;;;11.90;99.90;;;;;;4234527;28;20048;-81
2022/05/27 04:26:12;;;;;;;13.02;1.48;;;11.90;99.90;;;;;;4216489;28;20122;-82
2022/05/27 04:28:13;;;;;;;16.83;1.95;;;11.90;99.90;;;;;;4216709;28;20072;-82
2022/05/27 04:30:14;;;;;;;11.07;1.85;;;11.80;99.90;;;;;;4235935;28;20040;-82
2022/05/27 04:32:15;;;;;;;9.73;1.45;;;11.90;99.90;;;;;;4239117;27;20057;-83
2022/05/27 04:34:18;;;;;;;8.38;1.70;;;11.80;99.90;;;;;;4250276;27;20036;-82
2022/05/27 04:36:19;;;;;;;7.93;1.40;;;11.80;99.90;;;;;;4234073;28;20085;-83
2022/05/27 04:38:21;;;;;;;10.30;1.63;;;12.50;99.90;;;;;;4252675;27;20403;-83
2022/05/27 04:40:21;;;;;;;13.85;2.33;;;11.80;99.90;;;;;;4253021;27;20487;-83
2022/05/27 04:42:22;;;;;;;15.23;2.28;;;11.70;99.90;;;;;;4234689;28;20054;-83
2022/05/27 04:44:23;;;;;;;12.50;1.48;;;12.50;99.90;;;;;;4234688;28;20040;-82
2022/05/27 04:46:24;;;;;;;13.18;2.40;;;11.40;99.90;;;;;;4252804;27;20096;-83
2022/05/27 04:48:24;;;;;;;13.70;1.60;;;11.70;99.90;;;;;;4252724;27;20046;-83
2022/05/27 04:50:27;;;;;;;13.95;3.00;;;12.10;99.90;;;;;;4234527;28;20040;-82
2022/05/27 04:52:29;;;;;;;9.18;2.08;;;11.90;99.90;;;;;;4251889;27;20043;-82
2022/05/27 04:54:30;;;;;;;12.10;2.22;;;11.90;99.90;;;;;;4252335;27;20042;-82
2022/05/27 04:56:31;;;;;;;6.10;1.67;;;12.50;99.90;;;;;;4251891;27;20122;-82
2022/05/27 04:58:32;;;;;;;13.48;1.90;;;12.00;99.90;;;;;;4251730;27;20502;-83
2022/05/27 05:00:38;;;;;;;11.95;1.88;;;12.00;99.90;;;;;;4233533;28;20047;-82
2022/05/27 05:02:41;;;;;;;9.10;1.95;;;12.50;99.90;;;;;;4233240;28;20048;-82
2022/05/27 05:04:41;;;;;;;13.13;2.20;;;12.00;99.90;;;;;;4251522;27;20043;-82
2022/05/27 05:06:43;;;;;;;9.13;1.83;;;12.00;99.90;;;;;;4255133;27;20043;-84
2022/05/27 05:08:45;;;;;;;7.15;2.03;;;12.30;99.90;;;;;;4256020;27;20541;-84
2022/05/27 05:10:45;;;;;;;11.10;1.50;;;12.00;99.90;;;;;;4256212;27;20541;-84
2022/05/27 05:12:48;;;;;;;10.13;1.60;;;12.80;99.90;;;;;;4232186;28;20100;-84
2022/05/27 05:14:50;;;;;;;12.40;2.13;;;12.00;99.90;;;;;;4245356;27;20047;-84
2022/05/27 05:16:52;;;;;;;10.88;1.40;;;13.40;99.90;;;;;;4237310;28;20043;-84
2022/05/27 05:18:52;;;;;;;8.88;2.15;;;12.10;99.90;;;;;;4237136;28;20177;-84
2022/05/27 05:20:53;;;;;;;11.80;1.90;;;12.10;99.90;;;;;;4236872;28;20043;-84
2022/05/27 05:22:54;;;;;;;13.23;1.65;;;12.00;99.90;;;;;;4219257;28;20127;-85
2022/05/27 05:24:54;;;;;;;13.45;2.47;;;12.20;99.90;;;;;;4230389;28;20428;-83
2022/05/27 05:26:56;;;;;;;8.45;1.48;;;12.10;99.90;;;;;;4249335;28;20046;-83
2022/05/27 05:28:58;;;;;;;13.23;2.70;;;12.20;99.90;;;;;;4224438;28;20054;-84
2022/05/27 05:30:59;;;;;;;7.60;1.35;;;11.80;99.90;;;;;;4244662;28;20043;-84
2022/05/27 05:33:00;;;;;;;13.23;2.58;;;12.10;99.90;;;;;;4247872;28;20044;-84
2022/05/27 05:35:04;;;;;;;11.98;2.10;;;12.00;99.90;;;;;;4247285;28;20049;-83
2022/05/27 05:37:05;;;;;;;15.93;2.40;;;12.20;99.90;;;;;;4232663;28;20044;-83
2022/05/27 05:39:06;;;;;;;11.25;1.95;;;12.20;99.90;;;;;;4247685;28;20070;-85
2022/05/27 05:41:06;;;;;;;10.60;1.30;;;12.20;99.90;;;;;;4249160;28;20070;-82
2022/05/27 05:43:10;;;;;;;11.38;1.60;;;12.10;99.90;;;;;;4250827;28;20043;-82
2022/05/27 05:45:12;;;;;;;14.52;1.95;;;12.20;99.90;;;;;;4259171;27;20031;-82
2022/05/27 05:47:14;;;;;;;7.22;1.55;;;12.30;99.90;;;;;;4266427;27;20069;-83
2022/05/27 05:49:15;;;;;;;9.32;1.40;;;12.40;99.90;;;;;;4263568;27;20166;-83
2022/05/27 05:51:17;;;;;;;11.10;2.03;;;12.60;99.90;;;;;;4262304;27;20135;-82
2022/05/27 05:53:23;;;;;;;10.80;2.13;;;12.60;99.90;;;;;;4258568;27;20075;-82
2022/05/27 05:55:34;;;;;;;11.30;1.75;;;12.70;99.90;;;;;;4257634;27;20043;-83
2022/05/27 05:57:41;;;;;;;8.30;1.80;;;12.60;99.90;;;;;;4259171;27;20087;-83
2022/05/27 05:59:44;;;;;;;10.32;2.08;;;13.40;99.90;;;;;;4240552;28;20071;-83
2022/05/27 06:01:47;;;;;;;10.65;1.55;;;12.80;99.90;;;;;;4260397;27;20043;-83
2022/05/27 06:03:54;;;;;;;9.30;2.05;;;13.10;99.90;;;;;;4259952;27;20047;-83
2022/05/27 06:05:56;;;;;;;12.60;2.53;;;12.80;99.90;;;;;;4235540;28;20462;-83
2022/05/27 06:07:57;;;;;;;9.60;1.48;;;12.80;99.90;;;;;;4251213;27;20505;-84
2022/05/27 06:09:58;;;;;;;10.65;2.78;;;12.80;99.90;;;;;;4252028;27;20122;-84
2022/05/27 06:12:02;;;;;;;13.48;2.42;;;13.10;99.90;;;;;;4251334;27;20043;-84
2022/05/27 06:14:03;;;;;;;17.52;3.10;;;13.00;99.90;;;;;;4232625;28;20435;-83
2022/05/27 06:16:04;;;;;;;13.50;1.77;;;11.70;99.90;;;;;;4250290;27;20043;-83
2022/05/27 06:18:06;;;;;;;15.43;1.60;;;13.10;99.90;;;;;;4250243;27;20035;-83
2022/05/27 06:20:08;;;;;;;12.60;2.42;;;13.40;99.90;;;;;;4250759;27;20069;-83
2022/05/27 06:22:09;;;;;;;11.93;2.78;;;13.40;99.90;;;;;;4250410;27;20126;-83
2022/05/27 06:24:13;;;;;;;15.63;1.80;;;13.50;99.90;;;;;;4250569;27;20072;-84
2022/05/27 06:26:14;;;;;;;13.02;2.38;;;13.50;99.90;;;;;;4251309;27;20036;-83
2022/05/27 06:35:13;;;;;;;13.35;2.22;;;12.50;99.90;;;;;;4252447;27;20035;-84
2022/05/27 06:37:18;;;;;;;10.15;1.80;;;13.50;99.90;;;;;;4253146;27;20043;-83
2022/05/27 06:39:19;;;;;;;12.65;2.65;;;13.60;99.90;;;;;;4255253;27;20038;-84
2022/05/27 06:41:20;;;;;;;14.52;1.55;;;13.70;99.90;;;;;;4250713;27;20130;-83
2022/05/27 06:43:23;;;;;;;10.63;1.98;;;13.80;99.90;;;;;;4252582;27;20031;-84
2022/05/27 06:45:24;;;;;;;13.05;2.33;;;13.90;99.90;;;;;;4241123;27;20040;-84
2022/05/27 06:47:25;;;;;;;8.73;1.38;;;13.90;99.10;;;;;;4233393;28;20051;-83
2022/05/27 06:49:27;;;;;;;16.08;1.60;;;13.90;99.00;;;;;;4236524;28;20065;-83
2022/05/27 06:51:29;;;;;;;11.10;2.03;;;13.90;98.40;;;;;;4244965;28;20077;-83
2022/05/27 06:53:30;;;;;;;9.40;1.63;;;13.90;98.30;;;;;;4216598;28;20046;-84
2022/05/27 06:55:30;;;;;;;13.95;1.60;;;14.00;97.90;;;;;;4234385;28;20047;-84
2022/05/27 06:57:31;;;;;;;15.20;2.88;;;14.00;97.60;;;;;;4236277;28;20505;-84
2022/05/27 06:59:33;;;;;;;7.90;2.55;;;13.90;96.40;;;;;;4235543;28;20123;-84
2022/05/27 07:01:34;;;;;;;10.60;1.58;;;13.90;96.10;;;;;;4235180;28;20039;-83
2022/05/27 07:03:37;;;;;;;8.20;1.52;;;13.90;95.50;;;;;;4235158;28;20495;-84
2022/05/27 07:05:38;;;;;;;9.88;1.77;;;13.90;95.20;;;;;;4217120;28;20055;-84
2022/05/27 07:07:39;;;;;;;9.02;1.55;;;14.00;95.20;;;;;;4232994;28;20480;-85
2022/05/27 07:09:40;;;;;;;9.02;1.75;;;14.20;95.00;;;;;;4233515;28;20046;-85
2022/05/27 07:11:42;;;;;;;10.20;1.60;;;14.10;94.80;;;;;;4232653;28;20043;-85
2022/05/27 07:13:44;;;;;;;8.23;1.75;;;14.20;94.30;;;;;;4233638;28;20039;-85
2022/05/27 07:15:45;;;;;;;8.45;1.58;;;14.40;94.10;;;;;;4233683;28;20411;-85
2022/05/27 07:17:46;;;;;;;10.20;1.55;;;14.40;93.90;;;;;;4215876;28;20076;-84
2022/05/27 07:19:47;;;;;;;11.00;1.85;;;14.40;93.60;;;;;;4235285;28;20528;-84
2022/05/27 07:21:48;;;;;;;15.27;2.55;;;14.50;93.30;;;;;;4217789;28;20059;-83
2022/05/27 07:23:52;;;;;;;9.70;2.35;;;14.60;93.30;;;;;;4217647;28;20071;-83
2022/05/27 07:26:02;;;;;;;9.05;1.77;;;14.80;93.30;;;;;;4216363;28;20066;-85
2022/05/27 07:28:05;;;;;;;9.40;1.92;;;13.90;92.50;;;;;;4214862;28;20040;-84
2022/05/27 07:30:06;;;;;;;8.32;1.48;;;15.00;92.60;;;;;;4231641;28;20035;-82
2022/05/27 07:32:07;;;;;;;13.80;2.13;;;15.00;92.80;;;;;;4232220;28;20058;-81
2022/05/27 07:34:08;;;;;;;10.52;2.22;;;14.90;92.80;;;;;;4231994;28;20044;-82
2022/05/27 07:36:09;;;;;;;11.43;1.85;;;14.80;92.90;;;;;;4214729;28;20076;-85
2022/05/27 07:38:09;;;;;;;10.93;1.80;;;14.70;93.20;;;;;;4233864;28;20047;-83
2022/05/27 07:40:10;;;;;;;10.65;1.80;;;14.80;93.50;;;;;;4238275;28;20440;-83
2022/05/27 07:42:11;;;;;;;11.35;1.90;;;14.80;93.00;;;;;;4232726;28;20071;-84
2022/05/27 07:44:12;;;;;;;12.43;2.10;;;15.10;93.30;;;;;;4235005;28;20101;-84
2022/05/27 07:46:15;;;;;;;6.30;1.67;;;15.10;92.60;;;;;;4233885;28;20146;-85
2022/05/27 07:48:23;;;;;;;14.13;2.53;;;15.10;92.20;;;;;;4234845;28;20127;-85
2022/05/27 07:50:24;;;;;;;12.45;1.45;;;15.20;92.10;;;;;;4234318;28;20039;-84
2022/05/27 07:52:26;;;;;;;10.23;1.70;;;15.40;92.30;;;;;;4218648;28;20063;-85
2022/05/27 07:54:27;;;;;;;15.50;2.10;;;15.80;92.50;;;;;;4237856;28;20043;-85
2022/05/27 07:56:28;;;;;;;12.88;3.00;;;15.80;92.20;;;;;;4238240;28;20066;-85
2022/05/27 07:58:30;;;;;;;13.38;1.60;;;15.90;92.20;;;;;;4237812;28;20048;-85
2022/05/27 08:00:33;;;;;;;5.78;1.20;;;16.00;91.70;;;;;;4238336;28;20093;-85
2022/05/27 08:02:34;;;;;;;12.00;2.22;;;16.10;90.50;;;;;;4227308;28;20074;-85
2022/05/27 08:04:35;;;;;;;8.40;1.92;;;16.10;90.60;;;;;;4260952;27;20039;-83
2022/05/27 08:06:35;;;;;;;5.13;1.02;;;16.20;90.20;;;;;;4265463;27;20056;-85
2022/05/27 08:08:36;;;;;;;11.80;2.25;;;16.20;90.20;;;;;;4263051;27;20039;-86
2022/05/27 08:10:38;;;;;;;10.05;1.60;;;16.40;90.30;;;;;;4263334;27;20042;-85
2022/05/27 08:12:39;;;;;;;7.10;2.10;;;16.40;88.40;;;;;;4259797;27;20051;-84
2022/05/27 08:14:40;;;;;;;9.80;1.75;;;16.50;87.70;;;;;;4261237;27;20042;-85
2022/05/27 08:16:42;;;;;;;10.45;2.15;;;16.70;89.20;;;;;;4260298;27;20146;-84
2022/05/27 08:18:43;;;;;;;9.52;1.50;;;16.70;87.00;;;;;;4261570;27;20494;-85
2022/05/27 08:20:44;;;;;;;9.70;1.20;;;16.80;86.60;;;;;;4264197;27;20058;-85
2022/05/27 08:22:47;;;;;;;5.13;1.23;;;16.90;86.70;;;;;;4264526;28;20043;-85
2022/05/27 08:24:47;;;;;;;10.05;1.40;;;17.10;86.40;;;;;;4251421;28;20047;-84
2022/05/27 08:26:48;;;;;;;11.65;2.55;;;17.20;87.10;;;;;;4233394;28;20079;-84
2022/05/27 08:28:49;;;;;;;11.30;1.70;;;17.10;87.00;;;;;;4251845;28;20483;-85
2022/05/27 08:30:55;;;;;;;9.45;1.45;;;17.00;85.50;;;;;;4252022;28;20039;-84
2022/05/27 08:32:57;;;;;;;5.47;1.55;;;18.30;85.50;;;;;;4232818;28;20157;-84
2022/05/27 08:39:42;;;;;;;11.90;1.33;;;17.20;85.60;;;;;;4249493;28;20047;-85
2022/05/27 08:41:48;;;;;;;17.98;3.08;;;17.50;84.70;;;;;;4231409;28;20056;-84
2022/05/27 08:43:58;;;;;;;9.00;1.10;;;17.70;84.30;;;;;;4251039;28;20043;-84
2022/05/27 08:46:10;;;;;;;8.77;1.50;;;17.50;81.90;;;;;;4240819;28;20043;-84
2022/05/27 08:48:14;;;;;;;9.00;1.35;;;17.30;82.00;;;;;;4250975;28;20053;-85
2022/05/27 08:50:21;;;;;;;9.57;2.25;;;17.20;82.70;;;;;;4250138;28;20516;-84
2022/05/27 08:52:53;;;;;;;6.18;1.55;;;16.80;84.10;;;;;;4250497;28;20523;-84
2022/05/27 08:55:01;;;;;;;11.80;1.95;;;16.80;82.10;;;;;;4239979;28;20419;-85
2022/05/27 08:59:51;;;;;;;11.00;1.83;;;16.70;85.00;;;;;;4249274;28;20134;-84
2022/05/27 09:02:12;;;;;;;13.10;2.45;;;16.70;82.20;;;;;;4231204;28;20104;-85
2022/05/27 09:04:43;;;;;;;10.82;1.35;;;16.70;84.20;;;;;;4249495;28;20046;-85
2022/05/27 09:06:49;;;;;;;12.35;1.90;;;17.00;83.30;;;;;;4231061;28;20043;-84
2022/05/27 09:08:51;;;;;;;13.30;2.42;;;17.30;82.90;;;;;;4232661;28;20051;-84
2022/05/27 09:10:54;;;;;;;13.93;2.38;;;17.50;83.40;;;;;;4253590;27;20043;-85
2022/05/27 09:13:19;;;;;;;14.35;2.67;;;17.60;82.80;;;;;;4252318;27;20118;-85
2022/05/27 09:16:05;;;;;;;11.13;1.77;;;17.40;79.40;;;;;;4252667;27;20118;-84
2022/05/27 09:18:10;;;;;;;11.93;1.85;;;17.00;79.60;;;;;;4251790;27;20039;-85
2022/05/27 09:20:12;;;;;;;10.90;2.80;;;17.00;80.00;;;;;;4234559;28;20082;-85
2022/05/27 09:22:40;;;;;;;16.90;1.83;;;17.10;81.50;;;;;;4251162;27;20043;-85
2022/05/27 09:25:18;;;;;;;10.43;1.73;;;17.30;80.50;;;;;;4234754;28;20079;-85
2022/05/27 09:27:31;;;;;;;11.23;2.03;;;17.10;79.10;;;;;;4234678;28;20060;-85
2022/05/27 09:29:54;;;;;;;15.15;2.50;;;17.00;80.80;;;;;;4252879;27;20043;-85
2022/05/27 09:32:06;;;;;;;13.05;1.98;;;16.90;80.30;;;;;;4252969;27;20095;-85
2022/05/27 09:34:11;;;;;;;10.95;2.22;;;16.70;80.60;;;;;;4252185;27;20092;-85
2022/05/27 09:36:18;;;;;;;11.30;2.10;;;16.90;80.50;;;;;;4234929;28;20051;-85
2022/05/27 09:38:29;;;;;;;10.45;1.45;;;17.00;79.90;;;;;;4252165;27;20466;-85
2022/05/27 09:40:56;;;;;;;13.18;1.80;;;17.20;78.40;;;;;;4250451;27;20047;-84
2022/05/27 09:43:13;;;;;;;13.48;2.22;;;17.00;78.00;;;;;;4250969;27;20083;-85
2022/05/27 09:45:14;;;;;;;13.00;2.05;;;17.10;75.10;;;;;;4240567;27;20051;-85
2022/05/27 09:47:16;;;;;;;9.35;1.60;;;17.20;79.50;;;;;;4233962;28;20040;-84
2022/05/27 09:49:17;;;;;;;12.45;1.95;;;17.40;79.30;;;;;;4216730;28;20051;-84
2022/05/27 09:51:19;;;;;;;11.63;2.13;;;17.60;79.00;;;;;;4233381;28;20127;-84
2022/05/27 09:53:27;;;;;;;12.32;1.77;;;17.40;78.00;;;;;;4234007;28;20054;-84
2022/05/27 09:55:40;;;;;;;10.98;1.83;;;17.20;77.80;;;;;;4233517;28;20079;-84
2022/05/27 09:57:56;;;;;;;13.75;2.75;;;17.20;77.30;;;;;;4229996;28;20081;-85
2022/05/27 10:00:00;;;;;;;8.32;1.75;;;17.30;77.60;;;;;;4251182;27;20047;-85
2022/05/27 10:02:32;;;;;;;11.35;2.45;;;17.20;78.20;;;;;;4232350;28;20509;-85
2022/05/27 10:04:33;;;;;;;7.68;1.40;;;17.10;78.30;;;;;;4225847;28;20523;-85
2022/05/27 10:06:36;;;;;;;21.42;1.85;;;17.20;79.90;;;;;;4232395;28;20040;-85
2022/05/27 10:08:39;;;;;;;6.13;1.50;;;17.40;78.80;;;;;;4250646;27;20374;-85
2022/05/27 10:10:42;;;;;;;8.30;1.45;;;17.50;77.40;;;;;;4249876;27;20043;-84
2022/05/27 10:12:43;;;;;;;12.30;1.50;;;17.30;77.00;;;;;;4232005;28;20422;-84
2022/05/27 10:14:51;;;;;;;6.75;1.67;;;17.40;77.60;;;;;;4249995;27;20047;-84
2022/05/27 10:17:10;;;;;;;12.40;2.38;;;17.50;77.10;;;;;;4232092;28;20048;-84
2022/05/27 10:19:14;;;;;;;11.02;1.83;;;17.40;75.60;;;;;;4249824;27;20526;-84
2022/05/27 10:21:17;;;;;;;16.80;2.08;;;17.40;77.40;;;;;;4250011;27;20504;-84
2022/05/27 10:23:28;;;;;;;17.75;2.22;;;17.30;76.90;;;;;;4250100;27;20047;-84
2022/05/27 10:25:39;;;;;;;11.75;1.95;;;17.20;75.80;;;;;;4249403;27;20039;-85
2022/05/27 10:27:51;;;;;;;11.73;1.80;;;17.00;76.90;;;;;;4249896;27;20051;-85
2022/05/27 10:29:58;;;;;;;13.85;2.13;;;17.40;77.70;;;;;;4249844;27;20054;-85
2022/05/27 10:31:59;;;;;;;11.95;1.75;;;17.60;77.50;;;;;;4231594;28;20055;-85
2022/05/27 10:34:01;;;;;;;11.82;1.73;;;17.70;77.30;;;;;;4249763;27;20088;-85
2022/05/27 10:36:02;;;;;;;14.00;2.05;;;17.90;75.90;;;;;;4231673;28;20050;-83
2022/05/27 10:38:27;;;;;;;10.05;1.20;;;18.00;76.20;;;;;;4250016;27;20121;-85
2022/05/27 10:40:40;;;;;;;10.57;2.38;;;18.10;74.40;;;;;;4244841;27;20091;-84
2022/05/27 10:42:47;;;;;;;14.23;2.28;;;18.10;75.00;;;;;;4232926;28;20080;-84
2022/05/27 10:45:19;;;;;;;13.30;1.65;;;17.90;74.50;;;;;;4232992;28;20043;-84
2022/05/27 10:47:32;;;;;;;11.13;2.13;;;17.90;72.90;;;;;;4232763;28;20032;-84
2022/05/27 10:50:13;;;;;;;14.88;2.13;;;18.00;73.40;;;;;;4214852;28;20056;-84
2022/05/27 10:52:34;;;;;;;40.40;4.22;;;18.00;73.30;;;;;;4184405;28;20063;-83
2022/05/27 10:54:46;;;;;;;9.25;1.65;;;18.00;74.80;;;;;;4214804;28;20557;-84
2022/05/27 11:02:18;;;;;;;8.73;1.55;;;17.70;73.20;;;;;;4232439;28;20484;-85
2022/05/27 11:04:34;;;;;;;11.02;1.83;;;17.50;75.90;;;;;;4215186;28;20553;-85
2022/05/27 11:06:58;;;;;;;7.72;2.10;;;17.70;76.00;;;;;;4215596;28;20520;-85
2022/05/27 11:09:17;;;;;;;10.00;1.40;;;18.00;74.80;;;;;;4214245;28;20100;-84
2022/05/27 11:11:33;;;;;;;7.75;1.80;;;17.90;73.50;;;;;;4232248;28;20054;-84
2022/05/27 11:17:04;;;;;;;10.13;1.70;;;18.20;75.00;;;;;;4248000;27;20043;-84
2022/05/27 11:19:42;;;;;;;11.75;2.13;;;18.50;73.00;;;;;;4225332;28;20123;-84
2022/05/27 11:22:04;;;;;;;16.50;2.83;;;18.30;71.30;;;;;;4231301;28;20047;-84
2022/05/27 11:24:11;;;;;;;6.50;1.45;;;18.00;72.40;;;;;;4232794;28;20850;-85